Pagrindinis puslapis
METAR-TAF:

METAR-TAF

Oro uostai :

Newport, Vermontas, Jungtinės Amerikos Valstijos

platuma: 44-53-20N, ilguma: 072-13-45W, Aukštis: 283 m

Dabartinis oras

Ataskaita buvo paskelbta 16 minutes, ne 05:55 UTC
Vėjas 7 kt iš Pietvakarių
Temperatūra -6°C
Drėgmė 86%
Slėgis 997 hPa
Matomumas: 6.4 km
Su prošvaistėmis ne aukštis 2700 ft
Apsiniaukę ne aukštis 3500 ft
sniegas

METAR: KEFK 280555Z AUTO 22007KT 4SM -SN BKN027 OVC035 M06/M08 A2943 RMK AO2 T10611080 11045 21061

Laikas: 01:11 (06:11 UTC)


TAF: trūkstamas

Orai ataskaitas ir orų prognozės (METAR, TAF).

turimą stotys yra geltonos ir raudonos taškus žemėlapyje.

Perkelti pele per norėdami pamatyti stoties vardą.

Tada spustelėkite, norėdami matyti oro stebėjimo ir prognozės.

Norėdami pakeisti žemėlapį: spustelėkite ant žalios mygtukų su juodo kryžiaus žemyn,; žalią mygtuką su brūkšneliu, jei norite nutolinti; arba žalių rodyklių gretimoms žemėlapius.


METAR-TAF: